Time;durP1;ratioP1;P1;durP2;ratioP2;P2;SDS_P1;SDS_P2;PMS_P1;PMS_P2;Temp;Humidity;BMP_temperature;BMP_pressure;BME280_temperature;BME280_humidity;BME280_pressure;Samples;Min_cycle;Max_cycle;Signal;HPM_P1;HPM_P2
2022/05/31 00:00:38;;;;;;;6.95;3.75;;;;;;;22.67;62.33;94664.78;5110624;28;20193;-74
2022/05/31 00:03:06;;;;;;;4.28;3.88;;;;;;;22.64;62.20;94660.78;5095527;28;20224;-72
2022/05/31 00:05:35;;;;;;;4.97;3.70;;;;;;;22.62;62.29;94648.97;5089748;28;20999;-75
2022/05/31 00:08:04;;;;;;;4.43;3.47;;;;;;;22.62;62.17;94662.78;5095940;28;20250;-75
2022/05/31 00:10:31;;;;;;;7.50;3.90;;;;;;;22.62;62.33;94662.00;5130642;27;20648;-75
2022/05/31 00:12:58;;;;;;;3.75;3.45;;;;;;;22.60;62.46;94658.81;5130704;27;20576;-75
2022/05/31 00:15:25;;;;;;;7.53;4.30;;;;;;;22.56;62.54;94658.44;5130604;27;20683;-78
2022/05/31 00:17:52;;;;;;;5.85;3.55;;;;;;;22.55;62.55;94659.44;5130807;27;20667;-72
2022/05/31 00:20:19;;;;;;;8.05;3.90;;;;;;;22.52;62.75;94659.88;5113890;27;20196;-76
2022/05/31 00:22:46;;;;;;;9.75;3.80;;;;;;;22.51;62.81;94656.47;5110643;28;20184;-75
2022/05/31 00:25:15;;;;;;;6.00;4.20;;;;;;;22.51;62.82;94655.66;5110051;28;20205;-75
2022/05/31 00:27:42;;;;;;;6.00;4.35;;;;;;;22.48;62.98;94654.28;5114114;28;20193;-76
2022/05/31 00:30:11;;;;;;;5.57;3.97;;;;;;;22.45;63.00;94651.28;5130570;27;20604;-76
2022/05/31 00:32:41;;;;;;;4.60;3.95;;;;;;;22.44;63.09;94663.53;5131924;27;20192;-73
2022/05/31 00:35:13;;;;;;;4.72;3.78;;;;;;;22.43;63.11;94661.16;5134497;27;20185;-73
2022/05/31 00:37:41;;;;;;;5.75;3.22;;;;;;;22.41;63.32;94661.38;5131212;27;20176;-72
2022/05/31 00:40:09;;;;;;;5.22;3.75;;;;;;;22.40;63.20;94671.97;5130428;27;20185;-71
2022/05/31 00:42:56;;;;;;;5.43;3.58;;;;;;;22.38;63.56;94666.19;5113898;28;20197;-72
2022/05/31 00:45:27;;;;;;;4.65;3.42;;;;;;;22.36;63.77;94668.19;5113098;28;20604;-71
2022/05/31 00:47:55;;;;;;;4.47;3.40;;;;;;;22.34;63.70;94660.59;5112578;28;20600;-71
2022/05/31 00:50:28;;;;;;;6.60;4.40;;;;;;;22.31;63.95;94663.63;5114564;27;20196;-71
2022/05/31 00:52:58;;;;;;;5.05;3.83;;;;;;;22.29;64.03;94663.06;5114278;27;20193;-71
2022/05/31 00:55:29;;;;;;;8.32;4.43;;;;;;;22.28;63.79;94659.66;5113655;28;20201;-71
2022/05/31 00:58:05;;;;;;;4.93;3.92;;;;;;;22.27;63.96;94659.84;5113909;28;20193;-72
2022/05/31 01:00:31;;;;;;;6.90;3.50;;;;;;;22.25;63.91;94664.47;5113474;28;20647;-73
2022/05/31 01:03:00;;;;;;;7.60;4.00;;;;;;;22.24;63.97;94675.91;5113582;28;20177;-71
2022/05/31 01:05:27;;;;;;;4.32;3.92;;;;;;;22.22;64.07;94668.28;5113363;28;20213;-71
2022/05/31 01:07:54;;;;;;;5.22;3.83;;;;;;;22.20;64.21;94672.13;5114487;27;20221;-73
2022/05/31 01:10:21;;;;;;;8.68;4.20;;;;;;;22.19;64.13;94673.13;5113133;28;20193;-74
2022/05/31 01:12:51;;;;;;;6.45;4.28;;;;;;;22.15;64.39;94670.16;5111784;28;20268;-72
2022/05/31 01:15:20;;;;;;;6.25;4.10;;;;;;;22.14;64.46;94668.53;5112969;28;20191;-75
2022/05/31 01:17:47;;;;;;;6.90;3.63;;;;;;;22.13;64.36;94673.97;5113126;28;20657;-78
2022/05/31 01:20:17;;;;;;;6.18;3.85;;;;;;;22.11;64.50;94668.16;5129671;27;20564;-73
2022/05/31 01:22:47;;;;;;;5.68;3.90;;;;;;;22.10;64.41;94667.31;5117697;27;20189;-77
2022/05/31 01:25:37;;;;;;;11.00;4.20;;;;;;;22.10;64.43;94674.34;5112971;28;20236;-72
2022/05/31 01:28:14;;;;;;;5.15;4.32;;;;;;;22.09;64.69;94683.16;5112784;28;20197;-74
2022/05/31 01:30:43;;;;;;;4.00;3.70;;;;;;;22.01;64.71;94673.78;5112846;28;20192;-74
2022/05/31 01:33:15;;;;;;;4.35;3.90;;;;;;;22.00;64.61;94670.38;5112783;28;20193;-78
2022/05/31 01:35:44;;;;;;;7.07;3.88;;;;;;;21.96;64.64;94660.59;5113587;27;20185;-72
2022/05/31 01:38:15;;;;;;;4.00;3.53;;;;;;;22.02;64.73;94678.81;5110606;28;20193;-80
2022/05/31 01:40:48;;;;;;;6.70;3.97;;;;;;;22.01;64.96;94671.19;5112377;28;20189;-78
2022/05/31 01:43:15;;;;;;;4.45;4.05;;;;;;;22.00;65.11;94669.59;5126714;27;20727;-78
2022/05/31 01:45:47;;;;;;;4.75;3.38;;;;;;;21.98;65.03;94669.81;5132855;27;20722;-71
2022/05/31 01:48:15;;;;;;;7.00;4.53;;;;;;;21.96;64.93;94664.00;5132279;27;20723;-78
2022/05/31 01:50:46;;;;;;;6.85;4.25;;;;;;;21.92;65.03;94664.63;5116228;27;20211;-74
2022/05/31 01:53:14;;;;;;;5.95;4.03;;;;;;;21.90;65.50;94662.25;5133027;27;20215;-72
2022/05/31 01:55:43;;;;;;;9.25;4.15;;;;;;;21.91;65.15;94663.03;5133052;27;20272;-72
2022/05/31 01:58:16;;;;;;;5.57;3.83;;;;;;;21.91;65.27;94673.47;5132596;27;20249;-76
2022/05/31 02:00:43;;;;;;;9.35;3.92;;;;;;;21.83;65.28;94663.28;5132734;27;20657;-71
2022/05/31 02:03:10;;;;;;;5.45;3.85;;;;;;;21.83;65.33;94664.06;5115405;27;20200;-71
2022/05/31 02:05:43;;;;;;;4.30;3.90;;;;;;;21.86;65.46;94668.06;5117417;27;20196;-71
2022/05/31 02:08:11;;;;;;;5.78;4.28;;;;;;;21.83;65.58;94661.47;5132808;27;20184;-74
2022/05/31 02:10:39;;;;;;;7.75;3.95;;;;;;;21.83;65.53;94664.06;5132890;27;20192;-72
2022/05/31 02:13:06;;;;;;;8.13;4.22;;;;;;;21.80;65.51;94661.88;5132494;27;20224;-77
2022/05/31 02:15:33;;;;;;;11.27;4.43;;;;;;;21.81;65.71;94671.31;5132669;27;20199;-71
2022/05/31 02:18:00;;;;;;;5.45;4.50;;;;;;;21.79;65.86;94676.69;5132026;27;20180;-77
2022/05/31 02:20:27;;;;;;;5.40;4.35;;;;;;;21.79;65.75;94673.31;5126796;27;20192;-79
2022/05/31 02:22:54;;;;;;;6.78;4.20;;;;;;;21.77;65.89;94672.72;5111872;28;20188;-77
2022/05/31 02:25:22;;;;;;;7.55;4.30;;;;;;;21.73;65.97;94674.94;5112125;28;20248;-72
2022/05/31 02:27:49;;;;;;;8.93;4.55;;;;;;;21.73;65.86;94679.34;5111782;28;20188;-74
2022/05/31 02:30:16;;;;;;;8.05;4.55;;;;;;;21.71;65.96;94678.75;5111586;28;20189;-74
2022/05/31 02:32:43;;;;;;;8.60;4.57;;;;;;;21.69;66.19;94680.75;5111909;27;20201;-76
2022/05/31 02:35:11;;;;;;;10.75;4.15;;;;;;;21.70;66.15;94682.34;5117197;27;20188;-74
2022/05/31 02:37:39;;;;;;;5.93;4.55;;;;;;;21.67;66.15;94680.94;5132290;27;20193;-73
2022/05/31 02:40:08;;;;;;;9.07;4.97;;;;;;;21.66;66.25;94678.56;5131689;27;20202;-72
2022/05/31 02:42:39;;;;;;;7.43;4.97;;;;;;;21.65;66.31;94682.19;5131957;27;20249;-72
2022/05/31 02:45:08;;;;;;;7.88;4.65;;;;;;;21.64;66.38;94685.78;5132143;27;20220;-72
2022/05/31 02:47:37;;;;;;;10.15;4.57;;;;;;;21.63;66.53;94686.78;5132255;27;20192;-73
2022/05/31 02:50:05;;;;;;;8.20;4.68;;;;;;;21.61;66.32;94691.41;5113022;27;20221;-73
2022/05/31 02:52:32;;;;;;;7.45;4.10;;;;;;;21.59;66.66;94690.78;5111220;28;20203;-73
2022/05/31 02:54:59;;;;;;;7.82;4.15;;;;;;;21.58;66.71;94695.22;5110343;28;20185;-71
2022/05/31 02:57:26;;;;;;;7.68;4.30;;;;;;;21.57;66.62;94703.22;5111100;28;20211;-72
2022/05/31 02:59:54;;;;;;;5.40;4.40;;;;;;;21.56;66.62;94709.44;5118613;27;20657;-75
2022/05/31 03:02:21;;;;;;;6.90;4.20;;;;;;;21.54;66.67;94709.63;5131711;27;20188;-72
2022/05/31 03:04:48;;;;;;;7.05;3.90;;;;;;;21.55;66.93;94706.03;5113660;27;20185;-73
2022/05/31 03:07:15;;;;;;;7.88;4.90;;;;;;;21.53;66.62;94711.44;5110937;28;20193;-76
2022/05/31 03:09:41;;;;;;;7.63;4.65;;;;;;;21.54;66.80;94710.44;5111150;28;20186;-73
2022/05/31 03:12:14;;;;;;;7.05;3.78;;;;;;;21.54;66.75;94713.06;5110609;28;20189;-71
2022/05/31 03:14:49;;;;;;;9.68;4.15;;;;;;;21.53;66.90;94716.63;5111001;28;20189;-72
2022/05/31 03:17:20;;;;;;;4.68;4.28;;;;;;;21.54;66.88;94714.84;5110645;28;20187;-71
2022/05/31 03:19:53;;;;;;;9.02;4.05;;;;;;;21.55;66.75;94713.84;5130543;27;20561;-72
2022/05/31 03:22:26;;;;;;;5.30;4.20;;;;;;;21.56;66.88;94720.66;5131185;27;20249;-74
2022/05/31 03:24:56;;;;;;;9.15;4.35;;;;;;;21.41;66.82;94692.25;5131644;27;20271;-75
2022/05/31 03:27:23;;;;;;;7.28;4.32;;;;;;;21.57;66.88;94718.84;5131137;27;20187;-73
2022/05/31 03:29:52;;;;;;;6.00;4.43;;;;;;;21.60;66.83;94731.44;5131059;27;20192;-73
2022/05/31 03:32:22;;;;;;;10.25;5.07;;;;;;;21.60;66.92;94718.44;5130335;27;20188;-73
2022/05/31 03:34:49;;;;;;;10.95;4.47;;;;;;;21.58;67.21;94713.41;5110314;28;20213;-73
2022/05/31 03:37:18;;;;;;;4.87;4.37;;;;;;;21.63;66.78;94720.63;5111960;28;20192;-70
2022/05/31 03:39:45;;;;;;;9.40;4.45;;;;;;;21.68;67.00;94731.22;5130834;27;20248;-79
2022/05/31 03:42:11;;;;;;;7.85;4.53;;;;;;;21.71;66.74;94731.59;5131543;27;20575;-72
2022/05/31 03:44:38;;;;;;;8.90;4.80;;;;;;;21.76;66.82;94737.00;5130961;27;20188;-73
2022/05/31 03:47:06;;;;;;;6.97;4.80;;;;;;;21.81;66.76;94743.41;5131022;27;20223;-74
2022/05/31 03:49:34;;;;;;;6.13;5.38;;;;;;;21.83;66.69;94736.97;5112339;27;20252;-71
2022/05/31 03:52:02;;;;;;;9.13;4.75;;;;;;;21.88;66.81;94741.56;5124592;28;20192;-71
2022/05/31 03:54:30;;;;;;;10.75;4.68;;;;;;;21.86;66.53;94731.38;5130533;27;20195;-78
2022/05/31 03:56:57;;;;;;;7.95;5.32;;;;;;;21.95;66.62;94743.13;5128339;28;20290;-72
2022/05/31 03:59:24;;;;;;;6.15;5.10;;;;;;;21.98;67.07;94740.13;5109844;28;20669;-72
2022/05/31 04:01:51;;;;;;;9.07;5.18;;;;;;;22.02;66.56;94737.88;5110310;28;20639;-73
2022/05/31 04:04:18;;;;;;;9.00;4.93;;;;;;;22.08;66.63;94744.09;5110150;28;20185;-71
2022/05/31 04:06:46;;;;;;;6.13;4.32;;;;;;;22.10;66.53;94739.47;5111601;28;20220;-76
2022/05/31 04:09:13;;;;;;;6.53;4.30;;;;;;;22.13;66.51;94739.09;5114010;27;20220;-76
2022/05/31 04:11:40;;;;;;;7.60;4.80;;;;;;;22.18;66.49;94736.66;5115418;27;20193;-72
2022/05/31 04:14:07;;;;;;;7.88;4.68;;;;;;;22.22;66.72;94735.22;5114145;27;20200;-74
2022/05/31 04:16:35;;;;;;;6.95;4.30;;;;;;;22.26;66.29;94742.41;5116061;27;20193;-73
2022/05/31 04:19:03;;;;;;;6.70;4.80;;;;;;;22.31;66.59;94746.22;5134887;27;20196;-71
2022/05/31 04:21:30;;;;;;;7.70;4.85;;;;;;;22.35;66.24;94753.41;5124808;27;20193;-74
2022/05/31 04:24:02;;;;;;;7.53;4.53;;;;;;;22.41;66.42;94756.97;5114258;28;20197;-76
2022/05/31 04:26:31;;;;;;;9.75;5.07;;;;;;;22.46;66.15;94757.16;5113861;28;20300;-72
2022/05/31 04:28:58;;;;;;;13.98;5.15;;;;;;;22.45;66.11;94745.94;5114166;27;20669;-76
2022/05/31 04:31:26;;;;;;;7.70;5.20;;;;;;;22.60;65.88;94756.06;5128916;27;20188;-71
2022/05/31 04:33:52;;;;;;;10.60;5.22;;;;;;;22.68;65.44;94757.63;5135073;27;20188;-79
2022/05/31 04:36:22;;;;;;;12.90;4.82;;;;;;;22.79;65.33;94762.94;5127650;27;20561;-74
2022/05/31 04:38:49;;;;;;;8.68;4.20;;;;;;;22.89;64.94;94764.28;5114923;27;20196;-77
2022/05/31 04:41:19;;;;;;;7.35;4.63;;;;;;;22.95;64.44;94755.66;5117943;27;20383;-77
2022/05/31 04:43:46;;;;;;;10.93;5.10;;;;;;;23.09;64.62;94767.56;5114012;28;20553;-76
2022/05/31 04:46:15;;;;;;;7.25;4.78;;;;;;;23.18;64.02;94768.88;5113816;28;20639;-72
2022/05/31 04:48:42;;;;;;;6.07;4.63;;;;;;;23.25;64.26;94780.06;5097674;27;20213;-75
2022/05/31 04:51:09;;;;;;;6.78;4.63;;;;;;;23.33;63.93;94773.78;5129901;27;20645;-76
2022/05/31 04:53:36;;;;;;;9.52;4.13;;;;;;;23.40;63.95;94781.53;5134056;27;20201;-74
2022/05/31 04:56:04;;;;;;;6.60;4.22;;;;;;;23.43;63.56;94773.28;5126641;27;20234;-75
2022/05/31 04:58:33;;;;;;;5.78;4.50;;;;;;;23.51;63.18;94776.44;5113742;28;20204;-78
2022/05/31 05:01:01;;;;;;;5.50;3.80;;;;;;;23.58;62.77;94783.41;5115000;27;20703;-71
2022/05/31 05:03:29;;;;;;;7.22;3.63;;;;;;;23.63;62.51;94784.34;5113188;28;20208;-78
2022/05/31 05:06:00;;;;;;;5.55;3.90;;;;;;;23.68;62.99;94773.28;5131546;27;20239;-83
2022/05/31 05:08:27;;;;;;;6.00;4.18;;;;;;;23.83;64.88;94776.31;5125519;27;20185;-80
2022/05/31 05:10:54;;;;;;;13.20;4.15;;;;;;;24.13;67.52;94784.22;5114759;27;20194;-79
2022/05/31 05:13:21;;;;;;;9.77;3.95;;;;;;;24.49;69.31;94780.78;5113002;28;20192;-77
2022/05/31 05:15:55;;;;;;;5.32;4.03;;;;;;;24.94;71.07;94767.25;5114048;28;20189;-77
2022/05/31 05:18:23;;;;;;;9.35;3.75;;;;;;;25.60;71.05;94783.72;5117104;27;20184;-81
2022/05/31 05:20:50;;;;;;;5.28;3.50;;;;;;;26.18;71.07;94769.75;5113559;28;20182;-80
2022/05/31 05:23:17;;;;;;;6.38;3.35;;;;;;;27.00;69.91;94786.97;5112596;28;20602;-80
2022/05/31 05:25:49;;;;;;;7.05;3.20;;;;;;;27.78;67.75;94780.06;5113348;28;20208;-79
2022/05/31 05:31:02;;;;;;;7.47;3.30;;;;;;;29.43;63.80;94784.13;5125144;27;20205;-79
2022/05/31 05:33:29;;;;;;;8.95;3.33;;;;;;;30.17;61.76;94789.31;5120496;27;20695;-76
2022/05/31 05:35:55;;;;;;;3.67;2.70;;;;;;;30.94;59.78;94786.91;5112719;28;20676;-74
2022/05/31 05:38:22;;;;;;;6.60;3.05;;;;;;;31.63;57.67;94785.59;5110228;28;20242;-77
2022/05/31 05:40:49;;;;;;;3.05;2.60;;;;;;;32.36;55.98;94793.06;5103784;28;20696;-76
2022/05/31 05:43:17;;;;;;;5.28;2.92;;;;;;;33.07;54.34;94797.97;5091282;28;20184;-78
2022/05/31 05:45:44;;;;;;;4.22;2.28;;;;;;;33.76;52.45;94797.94;5099072;28;20742;-74
2022/05/31 05:48:12;;;;;;;6.47;3.38;;;;;;;34.39;50.66;94801.25;5110979;27;20193;-73
2022/05/31 05:50:40;;;;;;;5.93;2.92;;;;;;;35.00;48.99;94794.34;5111597;27;20196;-76
2022/05/31 05:53:08;;;;;;;8.57;3.10;;;;;;;35.62;47.58;94804.78;5111498;28;20585;-75
2022/05/31 05:55:37;;;;;;;5.57;2.42;;;;;;;36.23;46.13;94802.91;5111691;28;20215;-76
2022/05/31 05:58:07;;;;;;;4.45;2.83;;;;;;;36.81;44.89;94812.91;5110971;28;20200;-78
2022/05/31 06:00:38;;;;;;;7.45;3.10;;;;;;;37.39;43.93;94817.47;5111736;28;20192;-77
2022/05/31 06:03:10;;;;;;;6.05;2.83;;;;;;;37.95;42.49;94818.75;5111351;27;20273;-77
2022/05/31 06:05:40;;;;;;;8.60;2.95;;;;;;;38.46;41.44;94812.03;5111052;28;20196;-75
2022/05/31 06:08:12;;;;;;;4.72;3.08;;;;;;;38.98;40.66;94814.78;5111126;28;20189;-76
2022/05/31 06:10:44;;;;;;;7.20;3.47;;;;;;;39.49;40.02;94817.75;5111250;28;20197;-77
2022/05/31 06:13:17;;;;;;;5.15;2.50;;;;;;;39.97;38.98;94820.16;5111119;28;20249;-72
2022/05/31 06:15:48;;;;;;;6.47;2.60;;;;;;;40.42;37.88;94817.00;5111964;27;20185;-73
2022/05/31 06:18:19;;;;;;;5.55;2.72;;;;;;;40.82;37.16;94812.03;5109720;28;20222;-74
2022/05/31 06:20:50;;;;;;;3.03;2.78;;;;;;;41.17;36.29;94802.94;5111415;27;20192;-76
2022/05/31 06:23:17;;;;;;;5.78;2.90;;;;;;;41.58;35.94;94812.81;5112044;27;20677;-75
2022/05/31 06:25:44;;;;;;;3.13;2.70;;;;;;;41.92;35.37;94811.69;5111905;27;20173;-72
2022/05/31 06:28:11;;;;;;;5.18;2.92;;;;;;;42.18;35.06;94797.91;5110722;28;20553;-77
2022/05/31 06:30:38;;;;;;;9.15;3.22;;;;;;;42.55;34.37;94814.06;5110885;27;20196;-75
2022/05/31 06:33:05;;;;;;;4.00;2.85;;;;;;;42.83;33.86;94806.06;5111485;28;20189;-79
2022/05/31 06:35:32;;;;;;;6.15;2.78;;;;;;;43.09;33.88;94816.44;5111687;27;20206;-76
2022/05/31 06:38:01;;;;;;;7.43;3.50;;;;;;;43.33;33.16;94812.88;5111771;27;20196;-75
2022/05/31 06:40:28;;;;;;;5.93;3.33;;;;;;;43.55;32.31;94806.94;5110248;28;20276;-78
2022/05/31 06:42:55;;;;;;;6.60;3.45;;;;;;;43.78;32.07;94811.75;5111479;27;20202;-75
2022/05/31 06:45:22;;;;;;;8.55;3.80;;;;;;;43.98;32.12;94808.03;5110742;28;20196;-73
2022/05/31 06:47:49;;;;;;;7.95;3.10;;;;;;;44.16;31.34;94805.78;5110287;28;20228;-73
2022/05/31 06:50:16;;;;;;;10.70;3.55;;;;;;;44.34;30.82;94814.31;5110384;27;20220;-72
2022/05/31 06:58:12;;;;;;;11.43;3.80;;;;;;;44.85;29.83;94802.72;5110138;28;20629;-74
2022/05/31 07:00:39;;;;;;;8.73;3.95;;;;;;;44.94;29.77;94798.66;5110740;27;20188;-75
2022/05/31 07:03:06;;;;;;;8.68;3.25;;;;;;;45.12;29.48;94809.06;5110306;28;20193;-76
2022/05/31 07:05:33;;;;;;;11.02;4.30;;;;;;;45.22;29.29;94809.28;5109906;28;20197;-76
2022/05/31 07:08:00;;;;;;;7.18;4.10;;;;;;;45.34;29.36;94812.97;5110225;28;20212;-75
2022/05/31 07:10:28;;;;;;;4.57;3.90;;;;;;;45.39;28.67;94793.78;5107139;28;20192;-74
2022/05/31 07:12:55;;;;;;;6.68;3.63;;;;;;;45.53;28.38;94796.75;5110174;28;21598;-74
2022/05/31 07:15:24;;;;;;;12.95;4.32;;;;;;;45.60;27.96;94798.78;5110154;27;20691;-77
2022/05/31 07:17:51;;;;;;;10.15;4.05;;;;;;;45.67;28.58;94793.53;5110252;28;20204;-78
2022/05/31 07:20:18;;;;;;;8.70;3.60;;;;;;;45.77;28.37;94801.81;5107618;28;20192;-84
2022/05/31 07:22:45;;;;;;;9.65;3.88;;;;;;;45.84;27.63;94801.19;5110467;27;20667;-81
2022/05/31 07:25:11;;;;;;;5.30;3.35;;;;;;;45.74;26.98;94802.53;5110641;27;20184;-80
2022/05/31 07:27:40;;;;;;;6.40;3.35;;;;;;;45.60;27.40;94802.31;5109495;28;20219;-80
2022/05/31 07:30:08;;;;;;;11.82;3.53;;;;;;;45.55;27.24;94806.06;5110155;27;20188;-75
2022/05/31 07:32:35;;;;;;;6.45;3.50;;;;;;;45.51;27.85;94802.53;5110950;27;20181;-76
2022/05/31 07:35:02;;;;;;;6.35;3.40;;;;;;;45.52;27.98;94795.19;5109591;28;20196;-78
2022/05/31 07:37:29;;;;;;;5.43;3.42;;;;;;;45.48;27.96;94795.13;5109623;28;20252;-74
2022/05/31 07:39:55;;;;;;;5.55;3.75;;;;;;;45.54;28.52;94795.63;5110115;27;20205;-75
2022/05/31 07:42:22;;;;;;;7.47;4.00;;;;;;;45.55;27.86;94802.56;5109836;27;20184;-74
2022/05/31 07:44:54;;;;;;;4.65;3.45;;;;;;;45.53;27.89;94791.34;5109408;28;20219;-72
2022/05/31 07:47:21;;;;;;;6.70;3.90;;;;;;;45.50;28.20;94787.44;5115108;28;20244;-73
2022/05/31 07:49:48;;;;;;;7.07;3.70;;;;;;;45.47;27.90;94788.19;5107117;28;20231;-75
2022/05/31 07:52:15;;;;;;;6.93;3.55;;;;;;;45.43;28.33;94783.84;5109556;28;20204;-75
2022/05/31 07:54:42;;;;;;;9.38;3.30;;;;;;;45.38;27.82;94782.16;5109469;28;20196;-75
2022/05/31 07:58:30;;;;;;;10.68;3.75;;;;;;;45.34;27.97;94781.34;5110963;28;21512;-75
2022/05/31 07:59:57;;;;;;;10.23;3.83;;;;;;;45.32;27.45;94782.84;5109368;28;20253;-74
2022/05/31 08:02:24;;;;;;;6.35;3.67;;;;;;;45.26;27.86;94788.53;5109291;28;20203;-76
2022/05/31 08:04:50;;;;;;;6.50;3.58;;;;;;;45.18;27.49;94788.75;5109515;28;20196;-76
2022/05/31 08:07:18;;;;;;;5.55;3.42;;;;;;;45.07;27.64;94782.34;5109398;28;20223;-74
2022/05/31 08:09:44;;;;;;;8.65;4.03;;;;;;;45.04;27.21;94778.47;5109508;28;20910;-76
2022/05/31 08:12:12;;;;;;;9.95;3.85;;;;;;;44.99;27.42;94778.69;5109495;28;20203;-75
2022/05/31 08:14:39;;;;;;;5.32;3.42;;;;;;;44.89;27.62;94779.28;5109407;28;20193;-75
2022/05/31 08:17:09;;;;;;;8.35;3.42;;;;;;;44.83;27.19;94786.88;5109543;28;20208;-75
2022/05/31 08:19:38;;;;;;;9.35;4.07;;;;;;;44.75;27.54;94779.78;5106561;28;20726;-74
2022/05/31 08:22:05;;;;;;;8.52;3.60;;;;;;;44.67;26.77;94781.53;5109529;28;20196;-75
2022/05/31 08:24:33;;;;;;;4.70;3.10;;;;;;;44.55;27.44;94776.22;5109567;28;20220;-73
2022/05/31 08:27:00;;;;;;;5.93;3.50;;;;;;;44.48;26.75;94776.88;5109021;28;20263;-77
2022/05/31 08:29:30;;;;;;;7.47;3.60;;;;;;;44.38;27.37;94768.53;5109359;28;20336;-73
2022/05/31 08:31:58;;;;;;;10.45;3.40;;;;;;;44.27;26.85;94762.91;5109117;28;20188;-74
2022/05/31 08:34:29;;;;;;;7.25;3.35;;;;;;;44.16;26.96;94770.72;5109646;28;20224;-73
2022/05/31 08:36:55;;;;;;;6.22;3.40;;;;;;;44.04;26.97;94760.81;5109372;28;20208;-74
2022/05/31 08:39:23;;;;;;;8.45;3.90;;;;;;;43.94;27.31;94760.56;5109455;28;20181;-75
2022/05/31 08:41:52;;;;;;;8.15;3.63;;;;;;;43.80;27.40;94751.00;5109206;28;20188;-76
2022/05/31 08:44:36;;;;;;;7.03;3.38;;;;;;;43.65;27.09;94756.38;5109488;28;20273;-75
2022/05/31 08:47:13;;;;;;;11.20;3.70;;;;;;;43.48;27.40;94747.50;5109169;28;20212;-76
2022/05/31 08:52:45;;;;;;;8.57;3.40;;;;;;;43.19;27.10;94758.66;5111973;28;20184;-74
2022/05/31 08:58:10;;;;;;;9.75;3.92;;;;;;;42.87;27.60;94749.66;5113530;27;20196;-74
2022/05/31 09:00:42;;;;;;;3.53;2.83;;;;;;;42.71;27.23;94741.53;5112927;28;20196;-73
2022/05/31 09:03:16;;;;;;;5.30;3.40;;;;;;;42.56;27.52;94753.75;5113003;28;20561;-75
2022/05/31 09:05:49;;;;;;;3.42;3.10;;;;;;;42.32;27.54;94736.56;5112366;27;20207;-74
2022/05/31 09:08:21;;;;;;;4.30;3.13;;;;;;;42.20;27.60;94739.22;5113361;27;20204;-75
2022/05/31 09:10:54;;;;;;;8.05;3.67;;;;;;;42.10;27.61;94755.78;5112489;28;20251;-75
2022/05/31 09:13:28;;;;;;;15.43;3.97;;;;;;;41.95;27.50;94751.13;5112601;27;20188;-73
2022/05/31 09:15:59;;;;;;;5.28;3.03;;;;;;;41.81;27.94;94754.13;5112213;28;20203;-73
2022/05/31 09:18:38;;;;;;;5.95;3.10;;;;;;;41.63;27.48;94742.78;5112217;27;20188;-75
2022/05/31 09:21:25;;;;;;;7.05;3.78;;;;;;;41.44;27.89;94748.69;5112086;28;20192;-74
2022/05/31 09:23:55;;;;;;;6.18;3.47;;;;;;;41.27;28.04;94746.13;5111101;27;20183;-76
2022/05/31 09:26:51;;;;;;;14.25;3.55;;;;;;;41.07;27.91;94739.72;5113474;27;20265;-71
2022/05/31 09:29:21;;;;;;;4.60;2.70;;;;;;;40.84;27.76;94733.88;5109729;27;20283;-79
2022/05/31 09:32:02;;;;;;;6.78;3.08;;;;;;;40.69;28.24;94732.59;5110453;27;20220;-75
2022/05/31 09:34:53;;;;;;;9.18;3.25;;;;;;;40.49;28.10;94731.44;5107889;28;20742;-74
2022/05/31 09:37:39;;;;;;;9.30;3.28;;;;;;;40.30;28.25;94736.50;5108430;28;20579;-73
2022/05/31 09:40:23;;;;;;;5.60;2.72;;;;;;;40.08;28.82;94730.28;5110088;27;20293;-73
2022/05/31 09:42:59;;;;;;;4.80;2.63;;;;;;;39.91;28.99;94733.06;5107059;28;20204;-72
2022/05/31 09:45:30;;;;;;;4.45;3.20;;;;;;;39.73;29.09;94736.94;5109063;28;20196;-74
2022/05/31 09:48:00;;;;;;;5.40;2.95;;;;;;;39.52;28.85;94732.25;5108838;28;20235;-72
2022/05/31 09:50:29;;;;;;;5.45;2.90;;;;;;;39.37;29.03;94732.75;5110154;27;20189;-73
2022/05/31 09:52:58;;;;;;;4.15;2.50;;;;;;;39.22;29.38;94735.97;5110947;27;20189;-71
2022/05/31 09:58:23;;;;;;;6.35;2.83;;;;;;;38.91;29.62;94728.91;5112195;28;20623;-74
2022/05/31 10:01:03;;;;;;;4.57;2.80;;;;;;;38.76;29.94;94726.66;5110714;28;20203;-71
2022/05/31 10:03:38;;;;;;;11.43;4.22;;;;;;;38.61;30.05;94719.91;5110730;28;20181;-74
2022/05/31 10:06:13;;;;;;;3.67;3.20;;;;;;;38.48;29.96;94726.19;5111140;28;20272;-72
2022/05/31 10:08:42;;;;;;;8.20;3.50;;;;;;;38.35;30.17;94725.25;5111331;28;20212;-73
2022/05/31 10:11:14;;;;;;;4.32;3.03;;;;;;;38.20;30.13;94717.63;5111993;27;20186;-73
2022/05/31 10:13:43;;;;;;;3.72;2.90;;;;;;;38.08;30.56;94726.25;5110994;28;20208;-74
2022/05/31 10:16:15;;;;;;;6.97;3.75;;;;;;;37.98;30.77;94715.88;5110465;28;20661;-72
2022/05/31 10:18:49;;;;;;;4.35;3.05;;;;;;;37.83;30.57;94707.16;5109450;28;20197;-73
2022/05/31 10:21:32;;;;;;;7.38;3.20;;;;;;;37.73;30.68;94714.66;5111232;28;20189;-75
2022/05/31 10:24:09;;;;;;;5.32;3.10;;;;;;;37.55;30.85;94697.78;5110878;28;20602;-75
2022/05/31 10:26:41;;;;;;;7.45;2.92;;;;;;;37.47;31.08;94718.00;5110201;28;20189;-76
2022/05/31 10:29:15;;;;;;;4.38;3.00;;;;;;;37.36;30.98;94714.81;5111061;27;20227;-75
2022/05/31 10:31:45;;;;;;;6.63;3.25;;;;;;;37.23;31.18;94710.34;5110303;28;20566;-74
2022/05/31 10:34:35;;;;;;;4.55;3.58;;;;;;;37.11;31.33;94699.44;5111446;27;20245;-76
2022/05/31 10:37:04;;;;;;;5.15;3.33;;;;;;;36.99;31.24;94699.22;5110853;28;20231;-77
2022/05/31 10:39:36;;;;;;;10.07;3.63;;;;;;;36.93;31.80;94703.88;5110523;28;20193;-74
2022/05/31 10:42:09;;;;;;;7.65;3.40;;;;;;;36.67;31.59;94666.34;5109390;28;20197;-74
2022/05/31 10:44:40;;;;;;;7.57;3.10;;;;;;;36.76;32.05;94688.53;5109180;28;20683;-73
2022/05/31 10:47:11;;;;;;;6.07;3.00;;;;;;;36.70;31.80;94688.94;5110500;28;20576;-75
2022/05/31 10:49:38;;;;;;;5.65;3.33;;;;;;;36.60;31.85;94681.97;5109770;28;20232;-74
2022/05/31 10:52:19;;;;;;;5.93;3.40;;;;;;;36.52;32.07;94680.81;5110570;28;20246;-76
2022/05/31 10:55:03;;;;;;;4.20;2.97;;;;;;;36.45;32.09;94671.69;5108819;28;20676;-74
2022/05/31 10:57:42;;;;;;;9.98;3.13;;;;;;;36.28;32.03;94664.31;5108526;28;20264;-74
2022/05/31 11:00:18;;;;;;;5.93;4.05;;;;;;;36.33;32.19;94680.16;5110463;28;20197;-77
2022/05/31 11:03:20;;;;;;;3.25;2.78;;;;;;;36.27;32.15;94670.69;5108025;28;20195;-76
2022/05/31 11:05:58;;;;;;;5.15;2.83;;;;;;;36.07;32.39;94642.66;5100545;28;20287;-76
2022/05/31 11:11:33;;;;;;;3.78;2.75;;;;;;;36.07;32.51;94654.09;5110065;28;20241;-73
2022/05/31 11:14:19;;;;;;;5.30;3.15;;;;;;;36.01;32.63;94641.19;5108467;28;20192;-73
2022/05/31 11:17:01;;;;;;;3.25;2.58;;;;;;;35.94;32.91;94633.59;5107615;28;20218;-74
2022/05/31 11:19:40;;;;;;;6.00;3.03;;;;;;;35.84;32.58;94634.59;5107571;28;20269;-75
2022/05/31 11:22:29;;;;;;;4.93;2.70;;;;;;;35.78;32.77;94632.31;5110100;28;20580;-74
2022/05/31 11:25:25;;;;;;;8.05;2.97;;;;;;;35.70;32.97;94631.16;5110029;28;20261;-79
2022/05/31 11:28:06;;;;;;;6.38;3.03;;;;;;;35.58;32.90;94625.53;5046668;28;20737;-77
2022/05/31 11:30:39;;;;;;;3.30;3.00;;;;;;;35.41;33.02;94610.94;5045996;28;20197;-79
2022/05/31 11:33:26;;;;;;;4.40;3.05;;;;;;;35.41;33.08;94620.81;5045946;28;20798;-77
2022/05/31 11:36:07;;;;;;;6.60;2.92;;;;;;;35.33;33.25;94627.59;5044842;28;20222;-74
2022/05/31 11:38:42;;;;;;;3.25;2.92;;;;;;;35.26;33.33;94621.88;5047029;28;20686;-78
2022/05/31 11:41:22;;;;;;;4.32;2.90;;;;;;;35.18;33.17;94612.69;5046604;28;20193;-76
2022/05/31 11:44:21;;;;;;;4.50;2.50;;;;;;;35.11;33.00;94622.16;5047865;28;20213;-76
2022/05/31 11:46:58;;;;;;;4.95;2.47;;;;;;;35.05;33.29;94623.31;5045795;28;20187;-77
2022/05/31 11:49:35;;;;;;;5.32;2.90;;;;;;;34.98;33.45;94614.97;5045378;28;20230;-76
2022/05/31 11:52:16;;;;;;;3.65;2.70;;;;;;;34.92;33.00;94615.00;5046336;28;20205;-76
2022/05/31 11:58:04;;;;;;;5.88;2.70;;;;;;;34.73;33.25;94608.19;5046001;28;20189;-76
2022/05/31 12:00:41;;;;;;;6.05;2.50;;;;;;;34.65;33.40;94607.78;5045113;28;20230;-77
2022/05/31 12:03:14;;;;;;;5.55;2.95;;;;;;;34.59;33.29;94605.50;5046428;28;20193;-77
2022/05/31 12:05:46;;;;;;;3.88;2.30;;;;;;;34.51;33.52;94606.94;5098678;28;20197;-75
2022/05/31 12:08:18;;;;;;;5.22;2.35;;;;;;;34.43;33.32;94600.41;5108612;28;20231;-75
2022/05/31 12:10:50;;;;;;;4.30;2.60;;;;;;;34.40;33.50;94603.63;5107151;28;20181;-78